45OK weather

Belleview Landing Airport
South Coffeyville, Oklahoma, United States

Public forecast

Using degrees Fahrenheit for public forecast. Weather courtesy of forecast.io.

Closest aviation weather report (METAR) to Belleview Landing Airport

Closest report is Coffeyville Municipal Airport, 11.0 nm (20.4 km) N. Retrieved 2020/06/06 23:52 UTC (56 minutes ago):

KCFV 062352Z AUTO 16009KT 10SM CLR 33/22 A2986 RMK AO2 SLP102 T03330217 10350 20328 56013

Closest aviation forecast (TAF) to Belleview Landing Airport

Closest forecast is Bartlesville Municipal Airport, 21.6 nm (40.0 km) WSW. Retrieved 2020-06-07 00:22 UTC (26 minutes ago):

TAF KBVO 062320Z 0700/0724 14004KT P6SM FEW250 FM071500 17007KT P6SM SKC